Time;durP1;ratioP1;P1;durP2;ratioP2;P2;SDS_P1;SDS_P2;PMS_P1;PMS_P2;Temp;Humidity;BMP_temperature;BMP_pressure;BME280_temperature;BME280_humidity;BME280_pressure;Samples;Min_cycle;Max_cycle;Signal;HPM_P1;HPM_P2
2022/01/19 00:01:17;;;;;;;21.80;9.15;;;-0.60;99.90;;;;;;5076972;28;20040;-62
2022/01/19 00:03:44;;;;;;;22.00;10.02;;;-0.60;99.90;;;;;;5077701;28;20051;-62
2022/01/19 00:06:11;;;;;;;23.73;9.63;;;-0.60;99.90;;;;;;5077478;28;20040;-62
2022/01/19 00:08:39;;;;;;;19.75;9.98;;;-0.60;99.90;;;;;;5077604;28;20074;-62
2022/01/19 00:11:06;;;;;;;21.52;9.20;;;-0.60;99.90;;;;;;5077990;28;20040;-62
2022/01/19 00:13:33;;;;;;;18.63;8.95;;;-0.60;99.90;;;;;;5077790;28;20040;-62
2022/01/19 00:16:00;;;;;;;25.17;9.77;;;-0.50;99.90;;;;;;5077469;28;20044;-62
2022/01/19 00:18:27;;;;;;;24.15;9.38;;;-0.50;99.90;;;;;;5077655;28;20045;-62
2022/01/19 00:20:54;;;;;;;;;;;-0.50;99.90;;;;;;5077998;28;20048;-62
2022/01/19 00:23:22;;;;;;;18.00;8.48;;;-0.50;99.90;;;;;;5077775;28;19920;-62
2022/01/19 00:25:51;;;;;;;21.83;9.60;;;-0.50;99.90;;;;;;5077155;28;20041;-62
2022/01/19 00:28:20;;;;;;;20.08;9.65;;;-0.50;99.90;;;;;;5077679;28;20036;-62
2022/01/19 00:30:47;;;;;;;20.10;9.35;;;-0.60;99.90;;;;;;5059549;28;20049;-62
2022/01/19 00:33:15;;;;;;;20.33;9.48;;;-0.60;99.90;;;;;;5077472;28;20051;-63
2022/01/19 00:35:42;;;;;;;18.35;9.40;;;-0.50;99.90;;;;;;5077228;28;20067;-63
2022/01/19 00:38:09;;;;;;;23.58;9.60;;;-0.50;99.90;;;;;;5077702;28;20125;-62
2022/01/19 00:40:39;;;;;;;23.67;9.63;;;-0.50;99.90;;;;;;5059539;28;20062;-62
2022/01/19 00:43:11;;;;;;;24.88;10.27;;;-0.50;99.90;;;;;;5077531;28;20145;-63
2022/01/19 00:45:39;;;;;;;17.88;8.95;;;-0.50;99.90;;;;;;5077110;28;20033;-62
2022/01/19 00:48:24;;;;;;;20.15;9.02;;;-0.50;99.90;;;;;;5059551;28;20048;-63
2022/01/19 00:50:51;;;;;;;19.48;9.32;;;-0.50;99.90;;;;;;5077747;28;20401;-63
2022/01/19 00:53:18;;;;;;;21.65;9.82;;;-0.50;99.90;;;;;;5077480;28;20058;-63
2022/01/19 00:55:45;;;;;;;18.95;9.65;;;-0.60;99.90;;;;;;5077226;28;20446;-63
2022/01/19 00:58:12;;;;;;;20.85;9.27;;;-0.60;99.90;;;;;;5077345;28;20119;-62
2022/01/19 01:00:39;;;;;;;17.70;8.73;;;-0.70;99.90;;;;;;5073533;28;20052;-63
2022/01/19 01:03:07;;;;;;;21.73;9.50;;;-0.70;99.90;;;;;;5056295;28;20045;-62
2022/01/19 01:05:34;;;;;;;22.38;8.95;;;-0.70;99.90;;;;;;5073737;28;20043;-62
2022/01/19 01:08:01;;;;;;;;;;;-0.70;99.90;;;;;;5070578;28;20044;-63
2022/01/19 01:10:30;;;;;;;19.02;9.13;;;-0.70;99.90;;;;;;5054137;28;19990;-62
2022/01/19 01:13:16;;;;;;;19.42;8.77;;;-0.70;99.90;;;;;;5036031;28;20139;-62
2022/01/19 01:16:29;;;;;;;21.88;8.85;;;-0.80;99.90;;;;;;5053772;28;20045;-63
2022/01/19 01:18:36;;;;;;;19.30;9.35;;;-0.80;99.90;;;;;;5049169;28;20532;-62
2022/01/19 01:21:04;;;;;;;17.90;8.93;;;-0.80;99.90;;;;;;5035843;28;20044;-62
2022/01/19 01:23:35;;;;;;;21.33;9.05;;;-0.80;99.90;;;;;;5053829;28;20072;-62
2022/01/19 01:26:07;;;;;;;25.25;9.95;;;-0.80;99.90;;;;;;5035171;28;20037;-62
2022/01/19 01:28:34;;;;;;;20.70;9.25;;;-0.80;99.90;;;;;;5035959;28;20045;-62
2022/01/19 01:31:01;;;;;;;19.23;9.25;;;-0.80;99.90;;;;;;5053751;28;20037;-62
2022/01/19 01:33:31;;;;;;;19.08;8.13;;;-0.80;99.90;;;;;;5035488;28;20045;-62
2022/01/19 01:35:58;;;;;;;22.20;9.63;;;-0.80;99.90;;;;;;5035343;28;20152;-62
2022/01/19 01:38:25;;;;;;;24.60;11.20;;;-0.80;99.90;;;;;;5053561;28;20044;-62
2022/01/19 01:41:13;;;;;;;24.35;10.55;;;-0.90;99.90;;;;;;5053706;28;20033;-62
2022/01/19 01:43:48;;;;;;;21.25;9.63;;;-0.90;99.90;;;;;;5035397;28;20041;-63
2022/01/19 01:46:45;;;;;;;21.63;9.85;;;-0.90;99.90;;;;;;5052971;28;20040;-62
2022/01/19 01:49:04;;;;;;;20.48;9.35;;;-0.90;99.90;;;;;;5035480;28;20148;-62
2022/01/19 01:54:17;;;;;;;22.38;9.15;;;-0.90;99.90;;;;;;5035057;28;20041;-62
2022/01/19 01:56:43;;;;;;;16.83;8.85;;;-0.90;99.90;;;;;;5034828;28;20111;-62
2022/01/19 01:59:10;;;;;;;20.80;8.98;;;-1.00;99.90;;;;;;5035151;28;20382;-62
2022/01/19 02:01:41;;;;;;;18.80;8.60;;;-1.00;99.90;;;;;;5052878;28;20076;-62
2022/01/19 02:04:11;;;;;;;20.52;9.38;;;-1.00;99.90;;;;;;5035153;28;20140;-62
2022/01/19 02:07:15;;;;;;;22.67;10.18;;;-0.90;99.90;;;;;;5034874;28;20045;-62
2022/01/19 02:09:50;;;;;;;17.02;8.93;;;-0.90;99.90;;;;;;5035019;28;20053;-62
2022/01/19 02:23:27;;;;;;;25.48;11.43;;;-0.80;99.90;;;;;;5052751;28;20037;-62
2022/01/19 02:25:58;;;;;;;29.70;12.32;;;-0.80;99.90;;;;;;5034221;28;20049;-62
2022/01/19 02:42:33;;;;;;;19.40;9.57;;;-0.90;99.90;;;;;;5052296;28;20043;-62
2022/01/19 02:49:56;;;;;;;20.40;8.60;;;-1.00;99.90;;;;;;5034353;28;20045;-62
2022/01/19 02:52:23;;;;;;;18.38;8.73;;;-0.90;99.90;;;;;;5051982;28;20045;-62
2022/01/19 02:54:51;;;;;;;18.70;8.73;;;-0.90;99.90;;;;;;5052548;22;20388;-61
2022/01/19 02:57:24;;;;;;;20.52;9.43;;;-0.90;99.90;;;;;;5025850;28;20120;-61
2022/01/19 03:10:39;;;;;;;18.30;7.78;;;-1.00;99.90;;;;;;5030531;28;20059;-61
2022/01/19 03:13:06;;;;;;;20.33;8.57;;;-1.00;99.90;;;;;;5031987;28;20041;-61
2022/01/19 03:15:33;;;;;;;15.45;7.22;;;-1.00;99.90;;;;;;5030411;28;20172;-61
2022/01/19 03:18:01;;;;;;;13.30;5.57;;;-1.00;99.90;;;;;;5030573;28;20406;-61
2022/01/19 03:20:29;;;;;;;19.90;8.00;;;-1.10;99.90;;;;;;5030277;28;20502;-61
2022/01/19 03:23:03;;;;;;;15.43;7.65;;;-1.00;99.90;;;;;;5030057;28;20041;-61
2022/01/19 03:25:37;;;;;;;15.32;8.32;;;-1.10;99.90;;;;;;5030221;28;20046;-61
2022/01/19 03:28:04;;;;;;;19.40;8.93;;;-1.00;99.90;;;;;;5030548;28;20041;-61
2022/01/19 03:30:31;;;;;;;;;;;-1.00;99.90;;;;;;5030815;28;20056;-62
2022/01/19 03:32:59;;;;;;;20.58;10.02;;;-1.00;99.90;;;;;;5030362;28;19921;-61
2022/01/19 03:35:26;;;;;;;29.27;10.95;;;-1.10;99.90;;;;;;5031037;28;20040;-62
2022/01/19 03:37:53;;;;;;;22.10;9.90;;;-1.10;99.90;;;;;;5031279;28;20445;-61
2022/01/19 03:40:20;;;;;;;18.52;8.52;;;-1.10;99.90;;;;;;5031550;28;20449;-61
2022/01/19 03:42:46;;;;;;;20.17;8.85;;;-1.10;99.90;;;;;;5030496;28;20489;-61
2022/01/19 03:45:15;;;;;;;17.88;8.35;;;-1.10;99.90;;;;;;5029666;28;20046;-62
2022/01/19 03:47:47;;;;;;;18.45;9.32;;;-1.10;99.90;;;;;;5030334;28;20072;-62
2022/01/19 03:50:14;;;;;;;19.08;8.65;;;-1.10;99.90;;;;;;5030209;28;20056;-61
2022/01/19 03:52:41;;;;;;;14.23;8.07;;;-1.20;99.90;;;;;;5030258;28;20494;-61
2022/01/19 03:55:08;;;;;;;16.70;7.75;;;-1.10;99.90;;;;;;5030113;28;20060;-61
2022/01/19 03:57:36;;;;;;;14.55;7.68;;;-1.20;99.90;;;;;;5030010;28;20064;-62
2022/01/19 04:00:06;;;;;;;18.42;8.23;;;-1.20;99.90;;;;;;5031374;28;20045;-61
2022/01/19 04:02:42;;;;;;;19.02;7.88;;;-1.20;99.90;;;;;;5031357;28;20045;-62
2022/01/19 04:05:18;;;;;;;18.20;8.25;;;-1.20;99.90;;;;;;5029819;28;20080;-61
2022/01/19 04:07:45;;;;;;;12.68;6.90;;;-1.20;99.90;;;;;;5030200;28;20136;-62
2022/01/19 04:10:12;;;;;;;17.65;7.65;;;-1.20;99.90;;;;;;5029942;28;20061;-61
2022/01/19 04:12:46;;;;;;;15.20;6.93;;;-1.30;99.90;;;;;;5029918;28;20120;-62
2022/01/19 04:15:16;;;;;;;16.23;7.43;;;-1.20;99.90;;;;;;5029542;28;20466;-61
2022/01/19 04:17:53;;;;;;;14.95;6.90;;;-1.20;99.90;;;;;;5029728;28;20061;-61
2022/01/19 04:20:24;;;;;;;14.70;6.90;;;-1.20;99.90;;;;;;5029926;28;20041;-61
2022/01/19 04:22:57;;;;;;;14.40;7.70;;;-1.20;99.90;;;;;;5029769;28;20045;-61
2022/01/19 04:25:24;;;;;;;15.38;7.50;;;-1.30;99.90;;;;;;5031023;28;20111;-61
2022/01/19 04:27:51;;;;;;;17.13;7.90;;;-1.30;99.90;;;;;;5031097;28;20038;-61
2022/01/19 04:30:18;;;;;;;17.13;7.38;;;-1.30;99.90;;;;;;5030776;28;20041;-61
2022/01/19 04:35:24;;;;;;;15.65;7.57;;;-1.40;99.90;;;;;;5038931;28;20056;-61
2022/01/19 04:38:16;;;;;;;14.73;7.32;;;-1.40;99.90;;;;;;5049734;28;20047;-61
2022/01/19 04:54:45;;;;;;;18.48;8.48;;;-1.40;99.90;;;;;;5042841;28;20497;-61
2022/01/19 05:06:14;;;;;;;15.23;7.13;;;-1.40;99.90;;;;;;5037184;28;20440;-61
2022/01/19 05:08:56;;;;;;;14.48;6.93;;;-1.40;99.90;;;;;;5052879;28;20540;-61
2022/01/19 05:14:11;;;;;;;;;;;-1.50;99.90;;;;;;5053160;28;20052;-62
2022/01/19 05:16:38;;;;;;;14.05;6.88;;;-1.50;99.90;;;;;;5036277;28;19928;-61
2022/01/19 05:19:06;;;;;;;;;;;-1.50;99.90;;;;;;5013581;28;20048;-61
2022/01/19 05:21:34;;;;;;;12.60;6.63;;;-1.50;99.90;;;;;;5012993;28;19936;-61
2022/01/19 05:24:19;;;;;;;15.45;6.68;;;-1.50;99.90;;;;;;5029141;28;20502;-61
2022/01/19 05:27:04;;;;;;;15.70;7.32;;;-1.50;99.90;;;;;;5045899;28;20048;-62
2022/01/19 05:29:34;;;;;;;14.15;7.05;;;-1.50;99.90;;;;;;5052620;28;20049;-62
2022/01/19 05:32:01;;;;;;;14.38;7.85;;;-1.50;99.90;;;;;;5052625;28;20073;-62
2022/01/19 05:34:28;;;;;;;;;;;-1.50;99.90;;;;;;5052643;28;20045;-62
2022/01/19 05:37:08;;;;;;;;;;;-1.50;99.90;;;;;;5051955;28;19920;-61
2022/01/19 05:39:52;;;;;;;19.10;7.50;;;-1.50;99.90;;;;;;5052178;28;19920;-62
2022/01/19 05:42:36;;;;;;;17.60;7.93;;;-1.50;99.90;;;;;;5052584;28;20128;-61
2022/01/19 05:45:04;;;;;;;18.33;8.50;;;-1.50;99.90;;;;;;5053156;28;20033;-62
2022/01/19 05:47:31;;;;;;;16.80;8.40;;;-1.50;99.90;;;;;;5051302;28;20048;-61
2022/01/19 05:49:58;;;;;;;23.30;9.55;;;-1.50;99.90;;;;;;5053388;28;20086;-62
2022/01/19 05:52:25;;;;;;;21.50;9.27;;;-1.60;99.90;;;;;;5052117;28;20091;-61
2022/01/19 05:54:52;;;;;;;22.25;9.25;;;-1.60;99.90;;;;;;5051920;28;20041;-62
2022/01/19 05:57:20;;;;;;;19.40;9.75;;;-1.60;99.90;;;;;;5046402;28;20071;-61
2022/01/19 05:59:48;;;;;;;22.65;10.77;;;-1.70;99.90;;;;;;5051218;28;20131;-61
2022/01/19 06:02:16;;;;;;;18.98;9.68;;;-1.70;99.90;;;;;;5031348;28;20141;-61
2022/01/19 06:04:43;;;;;;;21.25;11.13;;;-1.70;99.90;;;;;;5012061;28;20108;-61
2022/01/19 06:07:30;;;;;;;18.15;8.98;;;-1.70;99.90;;;;;;5028555;28;20506;-61
2022/01/19 06:10:05;;;;;;;18.08;8.02;;;-1.70;99.90;;;;;;5031505;28;20053;-62
2022/01/19 06:12:41;;;;;;;22.50;9.27;;;-1.70;99.90;;;;;;5049159;28;20086;-61
2022/01/19 06:15:08;;;;;;;22.58;9.65;;;-1.70;99.90;;;;;;5052602;28;20106;-62
2022/01/19 06:17:35;;;;;;;20.63;9.98;;;-1.70;99.90;;;;;;5051565;28;20497;-61
2022/01/19 06:20:04;;;;;;;20.80;10.10;;;-1.70;99.90;;;;;;5051525;28;20544;-62
2022/01/19 06:22:31;;;;;;;23.48;10.73;;;-1.70;99.90;;;;;;5038513;28;20045;-61
2022/01/19 06:25:00;;;;;;;20.30;9.75;;;-1.70;99.90;;;;;;5031313;28;20100;-61
2022/01/19 06:27:27;;;;;;;19.58;9.77;;;-1.80;99.90;;;;;;5042133;28;20395;-61
2022/01/19 06:29:54;;;;;;;22.85;9.82;;;-1.80;99.90;;;;;;5032314;28;20048;-61
2022/01/19 06:32:21;;;;;;;24.88;10.88;;;-1.80;99.90;;;;;;5043641;28;20485;-61
2022/01/19 06:34:49;;;;;;;24.33;10.75;;;-1.80;99.90;;;;;;5035120;28;20033;-61
2022/01/19 06:37:22;;;;;;;21.65;10.27;;;-1.80;99.90;;;;;;5043161;28;20413;-61
2022/01/19 06:39:57;;;;;;;22.00;10.23;;;-1.80;99.90;;;;;;5039812;28;20092;-61
2022/01/19 06:42:24;;;;;;;16.88;8.57;;;-1.80;99.90;;;;;;5050514;28;20276;-62
2022/01/19 06:44:51;;;;;;;19.98;9.45;;;-1.80;99.90;;;;;;5049940;28;20094;-62
2022/01/19 06:47:18;;;;;;;17.45;8.45;;;-1.80;99.90;;;;;;5050428;28;20052;-62
2022/01/19 06:49:44;;;;;;;18.23;8.45;;;-1.80;99.90;;;;;;5050889;28;20135;-61
2022/01/19 06:52:14;;;;;;;20.73;9.05;;;-1.90;99.90;;;;;;5050820;28;20045;-61
2022/01/19 06:54:40;;;;;;;21.52;9.50;;;-1.90;99.90;;;;;;5050566;28;20559;-61
2022/01/19 06:57:07;;;;;;;21.90;9.32;;;-1.90;99.90;;;;;;5049908;28;20049;-61
2022/01/19 06:59:42;;;;;;;26.33;11.35;;;-1.80;99.90;;;;;;5067328;28;20044;-61
2022/01/19 07:02:24;;;;;;;21.65;10.57;;;-1.80;99.90;;;;;;5050649;28;20135;-62
2022/01/19 07:04:56;;;;;;;21.17;9.68;;;-1.80;99.90;;;;;;5050850;28;20041;-61
2022/01/19 07:07:37;;;;;;;21.23;8.88;;;-1.80;99.90;;;;;;5050770;28;20049;-61
2022/01/19 07:10:07;;;;;;;21.08;9.30;;;-1.70;99.90;;;;;;5050483;28;20049;-61
2022/01/19 07:12:36;;;;;;;20.63;8.23;;;-1.60;99.90;;;;;;5050625;28;20468;-61
2022/01/19 07:15:06;;;;;;;23.33;9.05;;;-1.60;99.90;;;;;;5050348;28;20052;-62
2022/01/19 07:17:34;;;;;;;16.23;7.72;;;-1.60;99.90;;;;;;5049745;28;20141;-61
2022/01/19 07:20:01;;;;;;;18.55;8.75;;;-1.60;99.90;;;;;;5050497;28;20461;-61
2022/01/19 07:22:30;;;;;;;16.52;8.30;;;-1.70;99.90;;;;;;5050300;28;20071;-61
2022/01/19 07:25:00;;;;;;;23.65;9.52;;;-1.70;99.90;;;;;;5050166;28;20041;-62
2022/01/19 07:27:27;;;;;;;21.15;10.57;;;-1.70;99.90;;;;;;5050018;28;20060;-61
2022/01/19 07:29:55;;;;;;;23.00;11.30;;;-1.60;99.90;;;;;;5050289;28;20106;-62
2022/01/19 07:32:23;;;;;;;24.58;12.60;;;-1.60;99.90;;;;;;5049829;28;20052;-62
2022/01/19 07:34:50;;;;;;;20.95;10.43;;;-1.60;99.90;;;;;;5050139;28;20107;-61
2022/01/19 07:37:18;;;;;;;20.52;9.75;;;-1.60;99.90;;;;;;5049944;28;20044;-61
2022/01/19 07:39:45;;;;;;;22.35;10.77;;;-1.60;99.90;;;;;;5050079;28;20069;-61
2022/01/19 07:42:13;;;;;;;21.10;9.68;;;-1.60;99.90;;;;;;5050109;28;20048;-61
2022/01/19 07:45:12;;;;;;;19.58;9.57;;;-1.60;99.90;;;;;;5050238;28;20130;-61
2022/01/19 07:48:05;;;;;;;21.63;10.20;;;-1.60;99.90;;;;;;5051042;28;20051;-61
2022/01/19 07:50:44;;;;;;;22.98;10.82;;;-1.60;99.90;;;;;;5049367;28;20052;-61
2022/01/19 07:53:40;;;;;;;25.80;11.18;;;-1.60;99.90;;;;;;5043677;28;20153;-61
2022/01/19 07:56:25;;;;;;;25.25;11.38;;;-1.60;99.90;;;;;;5051343;28;20055;-61
2022/01/19 07:59:14;;;;;;;18.40;8.48;;;-1.60;99.90;;;;;;5049919;28;20044;-61
2022/01/19 08:01:48;;;;;;;24.23;10.82;;;-1.60;99.90;;;;;;5049864;28;20052;-61
2022/01/19 08:04:40;;;;;;;26.98;11.63;;;-1.60;99.90;;;;;;5051150;28;20067;-61
2022/01/19 08:07:07;;;;;;;21.60;8.93;;;-1.60;99.90;;;;;;5049557;28;20490;-61
2022/01/19 08:09:35;;;;;;;17.55;9.07;;;-1.60;99.90;;;;;;5052426;28;20045;-61
2022/01/19 08:12:03;;;;;;;20.02;9.27;;;-1.60;99.90;;;;;;5053878;28;20048;-61
2022/01/19 08:14:31;;;;;;;35.08;14.43;;;-1.60;99.90;;;;;;5053760;28;20456;-61
2022/01/19 08:16:59;;;;;;;20.80;9.05;;;-1.60;99.90;;;;;;5053533;28;20091;-61
2022/01/19 08:19:31;;;;;;;18.08;8.00;;;-1.60;99.90;;;;;;5053945;28;20103;-61
2022/01/19 08:21:58;;;;;;;14.40;7.22;;;-1.60;99.90;;;;;;5053722;28;20045;-61
2022/01/19 08:24:25;;;;;;;19.75;7.30;;;-1.60;99.90;;;;;;5053511;28;20099;-61
2022/01/19 08:26:55;;;;;;;17.67;7.60;;;-1.60;99.90;;;;;;5053098;28;20045;-61
2022/01/19 08:29:32;;;;;;;;;;;-1.60;99.90;;;;;;5054124;28;20041;-61
2022/01/19 08:32:04;;;;;;;12.95;6.50;;;-1.60;99.90;;;;;;5053628;28;20284;-60
2022/01/19 08:35:09;;;;;;;12.63;6.45;;;-1.50;99.90;;;;;;5053017;28;20078;-61
2022/01/19 08:37:55;;;;;;;13.85;5.88;;;-1.30;99.90;;;;;;5055077;28;20644;-61
2022/01/19 08:40:28;;;;;;;14.60;6.97;;;-1.10;99.90;;;;;;5053440;28;20136;-61
2022/01/19 08:43:07;;;;;;;17.23;7.78;;;-1.00;99.90;;;;;;5052947;28;20051;-61
2022/01/19 08:45:35;;;;;;;17.33;8.63;;;-0.90;99.90;;;;;;5054231;28;20041;-61
2022/01/19 08:48:03;;;;;;;17.63;8.40;;;-0.80;99.90;;;;;;5053202;28;20145;-61
2022/01/19 08:50:47;;;;;;;18.73;8.23;;;-0.80;99.90;;;;;;5053425;28;20162;-60
2022/01/19 08:53:38;;;;;;;19.50;8.60;;;-0.70;99.90;;;;;;5069554;22;20414;-62
2022/01/19 08:56:23;;;;;;;19.10;8.45;;;-0.60;99.90;;;;;;5072327;28;20409;-62
2022/01/19 08:58:50;;;;;;;16.30;7.43;;;-0.50;99.90;;;;;;5065277;28;20291;-62
2022/01/19 09:01:17;;;;;;;16.42;8.18;;;-0.40;99.90;;;;;;5054145;28;20037;-62
2022/01/19 09:03:44;;;;;;;17.00;7.43;;;-0.20;99.90;;;;;;5054265;28;20069;-62
2022/01/19 09:06:11;;;;;;;;;;;-0.20;99.90;;;;;;5054205;28;20036;-62
2022/01/19 09:08:38;;;;;;;16.80;7.18;;;-0.10;99.90;;;;;;5053965;28;20016;-62
2022/01/19 09:11:06;;;;;;;21.13;7.82;;;-0.10;99.90;;;;;;5054197;28;20052;-62
2022/01/19 09:13:33;;;;;;;;;;;0.00;99.90;;;;;;5054412;28;20037;-61
2022/01/19 09:16:00;;;;;;;17.08;8.23;;;0.00;99.90;;;;;;5053836;28;19921;-62
2022/01/19 09:18:27;;;;;;;15.07;8.20;;;0.00;99.90;;;;;;5053905;28;20115;-62
2022/01/19 09:20:54;;;;;;;19.15;8.70;;;0.00;99.90;;;;;;5053056;28;20037;-61
2022/01/19 09:23:21;;;;;;;12.85;6.95;;;0.20;99.90;;;;;;5053708;28;20436;-61
2022/01/19 09:25:48;;;;;;;12.88;7.22;;;0.30;99.90;;;;;;5053748;28;20501;-62
2022/01/19 09:28:15;;;;;;;14.48;6.90;;;0.50;99.90;;;;;;5053612;28;20132;-61
2022/01/19 09:30:42;;;;;;;19.38;8.02;;;0.40;99.90;;;;;;5053803;28;20048;-61
2022/01/19 09:33:11;;;;;;;14.40;7.40;;;0.40;99.90;;;;;;5053643;28;20110;-61
2022/01/19 09:38:35;;;;;;;14.32;7.35;;;0.70;99.90;;;;;;5054069;28;20456;-61
2022/01/19 09:41:05;;;;;;;12.77;6.70;;;0.80;99.90;;;;;;5053437;28;20128;-62
2022/01/19 09:43:33;;;;;;;15.35;7.20;;;0.80;99.90;;;;;;5053367;28;20079;-61
2022/01/19 09:46:01;;;;;;;12.48;6.47;;;0.80;99.90;;;;;;5052847;28;20064;-62
2022/01/19 09:48:28;;;;;;;13.23;5.53;;;0.90;99.90;;;;;;5053429;28;20445;-61
2022/01/19 09:50:56;;;;;;;12.90;5.18;;;1.00;99.90;;;;;;5053353;28;20122;-61
2022/01/19 09:53:25;;;;;;;13.27;6.53;;;1.10;99.90;;;;;;5053379;28;20116;-62
2022/01/19 09:55:52;;;;;;;15.15;7.38;;;1.20;99.90;;;;;;5052709;28;20128;-62
2022/01/19 09:58:21;;;;;;;15.23;6.68;;;1.20;99.90;;;;;;5052999;28;20049;-62
2022/01/19 10:00:50;;;;;;;13.60;6.72;;;1.30;99.90;;;;;;5053239;28;20052;-61
2022/01/19 10:03:19;;;;;;;11.95;6.30;;;1.30;99.90;;;;;;5053100;28;20236;-62
2022/01/19 10:06:10;;;;;;;11.80;6.80;;;1.40;99.90;;;;;;5052597;28;20041;-61
2022/01/19 10:08:52;;;;;;;16.10;6.97;;;1.50;99.90;;;;;;5052816;28;20070;-62
2022/01/19 10:17:02;;;;;;;13.55;5.95;;;1.60;99.90;;;;;;5052398;28;20063;-62
2022/01/19 10:19:50;;;;;;;10.88;5.32;;;1.70;99.90;;;;;;5052895;28;20433;-61
2022/01/19 10:22:28;;;;;;;7.47;3.92;;;1.70;99.90;;;;;;5052752;28;20142;-61
2022/01/19 10:25:04;;;;;;;8.82;4.68;;;1.80;99.90;;;;;;5052668;28;20036;-62
2022/01/19 10:27:35;;;;;;;13.57;5.15;;;1.90;99.90;;;;;;5052492;28;20041;-62
2022/01/19 10:30:02;;;;;;;10.45;4.93;;;2.00;99.90;;;;;;5052462;28;20040;-62
2022/01/19 10:32:55;;;;;;;13.90;5.18;;;2.10;99.90;;;;;;5051398;28;20450;-62
2022/01/19 10:35:31;;;;;;;10.35;5.30;;;2.20;99.90;;;;;;5051945;28;20049;-62
2022/01/19 10:38:14;;;;;;;8.88;4.93;;;2.20;99.90;;;;;;5052531;28;20053;-62
2022/01/19 10:40:55;;;;;;;15.25;6.47;;;2.30;99.90;;;;;;5051319;28;20064;-62
2022/01/19 10:43:46;;;;;;;9.43;4.80;;;2.20;99.90;;;;;;5052271;28;20044;-62
2022/01/19 10:46:16;;;;;;;10.65;5.10;;;2.10;99.90;;;;;;5051799;28;20090;-61
2022/01/19 10:48:45;;;;;;;9.02;4.10;;;2.20;99.90;;;;;;5052527;28;20115;-62
2022/01/19 10:51:14;;;;;;;9.07;5.15;;;2.30;99.90;;;;;;5052171;28;20072;-62
2022/01/19 10:54:04;;;;;;;8.40;4.35;;;2.50;99.90;;;;;;5052188;28;20041;-62
2022/01/19 10:56:32;;;;;;;12.02;5.13;;;2.50;99.90;;;;;;5051264;28;20044;-62
2022/01/19 10:59:05;;;;;;;11.10;5.07;;;2.70;99.90;;;;;;5052267;28;20032;-62
2022/01/19 11:01:44;;;;;;;9.82;4.43;;;2.70;99.90;;;;;;5051939;28;20068;-62
2022/01/19 11:04:25;;;;;;;7.82;4.43;;;2.80;99.90;;;;;;5052173;28;20490;-62
2022/01/19 11:07:19;;;;;;;7.60;4.40;;;2.90;99.90;;;;;;5051629;28;20071;-62
2022/01/19 11:09:56;;;;;;;8.15;4.13;;;2.80;99.90;;;;;;5063768;28;20608;-62
2022/01/19 11:12:28;;;;;;;11.53;4.20;;;2.80;99.90;;;;;;5051862;28;20451;-62
2022/01/19 11:14:55;;;;;;;7.53;3.83;;;2.80;99.90;;;;;;5052267;28;20170;-62
2022/01/19 11:17:36;;;;;;;10.60;4.32;;;2.80;99.90;;;;;;5051385;28;20494;-62
2022/01/19 11:20:07;;;;;;;12.50;6.07;;;2.90;99.90;;;;;;5051622;28;20487;-62
2022/01/19 11:22:49;;;;;;;8.27;4.63;;;3.00;99.90;;;;;;5051884;28;20049;-62
2022/01/19 11:25:44;;;;;;;10.90;4.70;;;3.10;99.90;;;;;;5051163;28;20094;-61
2022/01/19 11:28:34;;;;;;;9.80;5.25;;;3.00;99.90;;;;;;5051645;28;20406;-62
2022/01/19 11:31:24;;;;;;;10.20;4.88;;;3.10;99.90;;;;;;5051410;28;20116;-62
2022/01/19 11:33:56;;;;;;;8.20;4.25;;;3.20;99.90;;;;;;5041163;28;20143;-62
2022/01/19 11:36:36;;;;;;;11.35;5.20;;;3.40;99.90;;;;;;5051171;28;20045;-62
2022/01/19 11:39:21;;;;;;;8.30;4.82;;;3.60;99.90;;;;;;5051397;28;20051;-62
2022/01/19 11:41:51;;;;;;;15.75;6.63;;;3.50;99.90;;;;;;5051364;28;20045;-62
2022/01/19 11:44:32;;;;;;;9.60;4.82;;;3.40;99.90;;;;;;5050920;28;20098;-62
2022/01/19 11:47:13;;;;;;;9.50;4.25;;;3.50;99.90;;;;;;5050758;28;20045;-62
2022/01/19 11:49:54;;;;;;;9.30;4.32;;;3.60;99.90;;;;;;5051366;28;20067;-61
2022/01/19 11:52:33;;;;;;;8.35;3.45;;;3.60;99.90;;;;;;5051435;28;20037;-62
2022/01/19 11:55:12;;;;;;;5.05;2.90;;;3.70;99.90;;;;;;5050911;28;20528;-62
2022/01/19 11:57:40;;;;;;;3.83;2.30;;;3.70;99.90;;;;;;5051346;28;20102;-62
2022/01/19 12:00:10;;;;;;;5.05;3.10;;;3.70;99.90;;;;;;5051224;28;20106;-62
2022/01/19 12:02:43;;;;;;;5.82;2.97;;;3.80;99.90;;;;;;5051419;28;20095;-62
2022/01/19 12:05:37;;;;;;;6.45;2.67;;;3.90;99.90;;;;;;5050643;28;20122;-62
2022/01/19 12:08:27;;;;;;;9.25;3.30;;;4.00;99.90;;;;;;5051505;28;20048;-62
2022/01/19 12:11:18;;;;;;;6.78;3.22;;;4.20;99.90;;;;;;5051195;28;20410;-62
2022/01/19 12:16:34;;;;;;;6.43;3.00;;;4.10;99.90;;;;;;5049524;28;20045;-62
2022/01/19 12:19:07;;;;;;;7.50;3.63;;;4.20;99.90;;;;;;5051376;28;20049;-62
2022/01/19 12:21:34;;;;;;;9.60;4.05;;;4.30;99.90;;;;;;5050791;28;20036;-62
2022/01/19 12:24:29;;;;;;;7.88;4.00;;;4.30;99.90;;;;;;5051236;28;20037;-62
2022/01/19 12:27:16;;;;;;;6.20;3.38;;;4.30;99.90;;;;;;5050499;28;20037;-62
2022/01/19 12:29:51;;;;;;;9.32;3.90;;;4.30;99.90;;;;;;5037451;28;20093;-62
2022/01/19 12:32:18;;;;;;;6.47;3.10;;;4.40;99.90;;;;;;5050857;28;20041;-62
2022/01/19 12:34:49;;;;;;;8.25;3.08;;;4.40;99.90;;;;;;5050765;28;20037;-62
2022/01/19 12:37:34;;;;;;;5.47;3.00;;;4.40;99.90;;;;;;5050569;28;20527;-62
2022/01/19 12:40:05;;;;;;;7.00;3.50;;;4.40;99.90;;;;;;5050838;28;20037;-62
2022/01/19 12:42:42;;;;;;;6.72;3.00;;;4.40;99.90;;;;;;5050503;28;20543;-62
2022/01/19 12:45:30;;;;;;;6.63;3.40;;;4.40;99.90;;;;;;5050765;28;20485;-62
2022/01/19 12:47:59;;;;;;;8.43;2.92;;;4.30;99.90;;;;;;5050995;28;20466;-62
2022/01/19 12:50:37;;;;;;;8.48;3.22;;;4.40;99.90;;;;;;5050896;28;20041;-62
2022/01/19 12:53:11;;;;;;;7.38;3.22;;;4.50;99.90;;;;;;5050617;28;20048;-62
2022/01/19 12:55:43;;;;;;;6.20;3.00;;;4.50;99.90;;;;;;5051281;28;20049;-62
2022/01/19 12:58:12;;;;;;;8.25;2.90;;;4.60;99.90;;;;;;5054501;28;20041;-62
2022/01/19 13:00:40;;;;;;;6.75;2.85;;;4.60;99.90;;;;;;5054207;28;20041;-62
2022/01/19 13:03:15;;;;;;;4.93;2.80;;;4.70;99.90;;;;;;5054238;28;20417;-62
2022/01/19 13:05:53;;;;;;;10.15;2.92;;;4.70;99.90;;;;;;5053768;28;20079;-62
2022/01/19 13:08:27;;;;;;;4.33;2.80;;;4.70;99.90;;;;;;5054323;28;20033;-62
2022/01/19 13:11:01;;;;;;;5.78;2.70;;;4.70;99.90;;;;;;5054348;28;20323;-62
2022/01/19 13:13:29;;;;;;;8.02;3.03;;;4.60;99.90;;;;;;5054037;28;20045;-62
2022/01/19 13:16:04;;;;;;;6.93;2.85;;;4.70;99.90;;;;;;5053423;28;20443;-62
2022/01/19 13:18:43;;;;;;;6.07;2.95;;;4.70;99.90;;;;;;5054037;28;20057;-62
2022/01/19 13:21:16;;;;;;;4.10;2.60;;;4.80;99.90;;;;;;5053918;28;20120;-62
2022/01/19 13:23:58;;;;;;;5.00;2.67;;;4.80;99.90;;;;;;5053912;28;20036;-62
2022/01/19 13:26:39;;;;;;;6.93;2.92;;;4.70;99.90;;;;;;5053072;28;20048;-62
2022/01/19 13:29:27;;;;;;;5.78;3.22;;;4.70;99.90;;;;;;5053890;28;20041;-62
2022/01/19 13:32:02;;;;;;;5.40;2.78;;;4.80;99.90;;;;;;5053758;28;20076;-62
2022/01/19 13:34:33;;;;;;;5.53;2.95;;;4.90;99.90;;;;;;5053750;28;20041;-62
2022/01/19 13:37:02;;;;;;;8.10;2.85;;;4.80;99.90;;;;;;5052997;28;20072;-62
2022/01/19 13:39:32;;;;;;;4.75;2.80;;;4.90;99.90;;;;;;5053504;28;20563;-62
2022/01/19 13:42:01;;;;;;;5.93;2.80;;;4.90;99.90;;;;;;5053486;28;20095;-62
2022/01/19 13:44:34;;;;;;;7.00;3.00;;;5.00;99.90;;;;;;5053534;28;20102;-62
2022/01/19 13:47:14;;;;;;;5.57;2.80;;;5.00;99.90;;;;;;5053294;28;20296;-62
2022/01/19 13:49:52;;;;;;;7.63;2.88;;;5.00;99.90;;;;;;5053216;28;20048;-62
2022/01/19 13:52:26;;;;;;;8.02;2.70;;;5.10;99.90;;;;;;5053284;28;20053;-62
2022/01/19 13:54:53;;;;;;;6.65;4.10;;;5.10;99.90;;;;;;5053018;28;20057;-62
2022/01/19 13:57:29;;;;;;;7.10;3.47;;;5.10;99.90;;;;;;5052926;28;20059;-62
2022/01/19 14:00:09;;;;;;;5.50;3.92;;;5.00;99.90;;;;;;5053234;28;20049;-62
2022/01/19 14:02:36;;;;;;;9.48;3.42;;;5.00;99.90;;;;;;5053088;28;20079;-62
2022/01/19 14:05:48;;;;;;;5.13;2.92;;;5.00;99.90;;;;;;5052730;28;20409;-62
2022/01/19 14:08:31;;;;;;;6.72;3.20;;;5.10;99.90;;;;;;5052804;28;20098;-63
2022/01/19 14:11:00;;;;;;;9.32;5.18;;;5.10;99.90;;;;;;5052971;28;20094;-62
2022/01/19 14:13:35;;;;;;;7.72;4.90;;;5.10;99.90;;;;;;5052923;28;20338;-62
2022/01/19 14:16:24;;;;;;;9.65;4.30;;;5.10;99.90;;;;;;5052577;28;20041;-62
2022/01/19 14:19:04;;;;;;;;;;;4.80;99.90;;;;;;5053530;28;20461;-62
2022/01/19 14:21:32;;;;;;;13.57;6.70;;;4.80;99.90;;;;;;5052771;28;19924;-62
2022/01/19 14:23:59;;;;;;;15.85;7.97;;;4.70;99.90;;;;;;5052598;28;20049;-62
2022/01/19 14:26:27;;;;;;;12.07;5.80;;;4.70;99.90;;;;;;5052297;28;20044;-62
2022/01/19 14:29:13;;;;;;;46.13;20.00;;;4.70;99.90;;;;;;5052532;28;20041;-62
2022/01/19 14:31:51;;;;;;;16.10;9.27;;;4.60;99.90;;;;;;5052662;28;20582;-62
2022/01/19 14:34:42;;;;;;;28.02;14.65;;;4.60;99.90;;;;;;5052440;28;20063;-62
2022/01/19 14:37:19;;;;;;;20.30;9.88;;;4.50;99.90;;;;;;5051907;28;20090;-62
2022/01/19 14:39:52;;;;;;;13.00;7.85;;;4.30;99.90;;;;;;5052396;28;20493;-62